createdAt,value
2022-10-13T00:00:31.967Z,9.73
2022-10-13T00:03:00.212Z,13.33
2022-10-13T00:05:29.012Z,14.63
2022-10-13T00:07:56.319Z,13.43
2022-10-13T00:10:23.680Z,9.37
2022-10-13T00:12:50.653Z,10.10
2022-10-13T00:15:18.442Z,7.77
2022-10-13T00:17:45.314Z,11.67
2022-10-13T00:20:12.698Z,9.87
2022-10-13T00:22:41.056Z,10.10
2022-10-13T00:25:08.667Z,10.37
2022-10-13T00:27:35.371Z,10.60
2022-10-13T00:30:02.128Z,8.63
2022-10-13T00:32:29.373Z,12.93
2022-10-13T00:34:56.097Z,10.30
2022-10-13T00:37:22.858Z,8.70
2022-10-13T00:39:50.935Z,10.77
2022-10-13T00:42:17.869Z,18.73
2022-10-13T00:45:03.746Z,9.60
2022-10-13T00:47:36.033Z,14.50
2022-10-13T00:50:04.339Z,13.47
2022-10-13T00:52:32.965Z,11.07
2022-10-13T00:55:03.851Z,18.07
2022-10-13T00:57:30.651Z,13.33
2022-10-13T00:59:58.763Z,16.00
2022-10-13T01:02:31.290Z,11.00
2022-10-13T01:04:59.830Z,10.63
2022-10-13T01:07:26.633Z,18.10
2022-10-13T01:09:53.447Z,21.40
2022-10-13T01:12:40.226Z,10.87
2022-10-13T01:15:12.116Z,10.87
2022-10-13T01:17:48.798Z,14.80
2022-10-13T01:20:58.413Z,14.20
2022-10-13T01:23:55.518Z,7.77
2022-10-13T01:26:52.853Z,12.57
2022-10-13T01:29:47.803Z,10.33
2022-10-13T01:32:19.821Z,11.73
2022-10-13T01:34:53.174Z,15.93
2022-10-13T01:37:25.886Z,9.13
2022-10-13T01:39:57.499Z,11.77
2022-10-13T01:42:31.955Z,18.03
2022-10-13T01:45:02.487Z,11.93
2022-10-13T01:47:31.332Z,15.83
2022-10-13T01:49:59.670Z,19.70
2022-10-13T01:52:32.464Z,17.40
2022-10-13T01:55:06.755Z,17.57
2022-10-13T01:57:35.895Z,23.87
2022-10-13T02:00:07.747Z,13.53
2022-10-13T02:02:41.799Z,10.63
2022-10-13T02:05:17.741Z,12.37
2022-10-13T02:07:48.357Z,11.40
2022-10-13T02:10:20.589Z,12.30
2022-10-13T02:12:51.874Z,12.10
2022-10-13T02:15:23.352Z,8.60
2022-10-13T02:17:51.126Z,14.83
2022-10-13T02:20:19.955Z,20.50
2022-10-13T02:22:51.065Z,11.50
2022-10-13T02:25:17.993Z,15.77
2022-10-13T02:27:44.763Z,11.13
2022-10-13T02:30:22.603Z,13.87
2022-10-13T02:32:49.480Z,10.63
2022-10-13T02:35:16.288Z,13.07
2022-10-13T02:37:43.146Z,12.47
2022-10-13T02:40:11.124Z,14.73
2022-10-13T02:42:37.905Z,18.83
2022-10-13T02:45:05.843Z,6.93
2022-10-13T02:47:33.958Z,17.00
2022-10-13T02:50:00.859Z,13.73
2022-10-13T02:52:27.605Z,13.60
2022-10-13T02:54:54.306Z,14.60
2022-10-13T02:57:21.076Z,18.93
2022-10-13T02:59:47.835Z,9.50
2022-10-13T03:02:14.760Z,8.07
2022-10-13T03:04:43.088Z,8.40
2022-10-13T03:07:10.128Z,10.20
2022-10-13T03:09:36.894Z,12.80
2022-10-13T03:12:03.788Z,9.53
2022-10-13T03:14:30.502Z,12.50
2022-10-13T03:16:57.225Z,13.60
2022-10-13T03:19:24.286Z,13.57
2022-10-13T03:21:52.380Z,14.70
2022-10-13T03:24:19.148Z,12.30
2022-10-13T03:26:45.900Z,12.20
2022-10-13T03:29:14.357Z,6.70
2022-10-13T03:31:41.164Z,12.70
2022-10-13T03:34:07.951Z,14.73
2022-10-13T03:36:34.764Z,11.77
2022-10-13T03:39:02.879Z,14.13
2022-10-13T03:41:29.565Z,13.50
2022-10-13T03:43:56.328Z,12.90
2022-10-13T03:46:26.309Z,14.93
2022-10-13T03:48:53.114Z,8.77
2022-10-13T03:51:21.182Z,13.37
2022-10-13T03:53:49.021Z,12.60
2022-10-13T03:56:19.767Z,19.00
2022-10-13T03:58:46.494Z,13.57
2022-10-13T04:01:13.849Z,18.87
2022-10-13T04:03:40.618Z,12.87
2022-10-13T04:06:07.505Z,19.20
2022-10-13T04:08:34.649Z,11.77
2022-10-13T04:11:02.482Z,16.40
2022-10-13T04:13:30.611Z,10.10
2022-10-13T04:16:02.018Z,10.37
2022-10-13T04:18:28.829Z,14.57
2022-10-13T04:20:55.604Z,15.87
2022-10-13T04:23:22.303Z,13.90
2022-10-13T04:25:49.159Z,14.73
2022-10-13T04:28:16.087Z,18.43
2022-10-13T04:30:49.114Z,11.97
2022-10-13T04:33:16.258Z,13.50
2022-10-13T04:35:43.005Z,14.10
2022-10-13T04:38:09.755Z,11.10
2022-10-13T04:40:36.494Z,13.27
2022-10-13T04:43:03.506Z,14.40
2022-10-13T04:45:30.506Z,10.27
2022-10-13T04:48:00.166Z,10.43
2022-10-13T04:50:26.984Z,11.90
2022-10-13T04:52:53.717Z,12.30
2022-10-13T04:55:20.464Z,11.13
2022-10-13T04:57:47.258Z,15.87
2022-10-13T05:00:14.555Z,18.80
2022-10-13T05:02:41.329Z,11.30
2022-10-13T05:05:10.212Z,11.70
2022-10-13T05:07:37.140Z,13.27
2022-10-13T05:10:04.298Z,11.17
2022-10-13T05:12:31.019Z,18.30
2022-10-13T05:14:57.781Z,9.20
2022-10-13T05:17:24.639Z,14.20
2022-10-13T05:19:51.367Z,20.93
2022-10-13T05:22:19.688Z,23.47
2022-10-13T05:24:46.807Z,18.70
2022-10-13T05:27:13.917Z,13.43
2022-10-13T05:29:41.265Z,19.63
2022-10-13T05:32:08.580Z,18.27
2022-10-13T05:34:35.423Z,14.03
2022-10-13T05:37:02.302Z,14.53
2022-10-13T05:39:30.544Z,18.50
2022-10-13T05:41:57.370Z,19.40
2022-10-13T05:44:24.158Z,19.43
2022-10-13T05:46:50.987Z,18.03
2022-10-13T05:49:17.965Z,12.80
2022-10-13T05:51:47.804Z,16.90
2022-10-13T05:54:17.731Z,18.47
2022-10-13T05:56:51.612Z,14.50
2022-10-13T05:59:24.568Z,18.23
2022-10-13T06:01:53.306Z,21.10
2022-10-13T06:04:24.801Z,20.47
2022-10-13T06:06:56.335Z,17.27
2022-10-13T06:09:23.254Z,13.70
2022-10-13T06:11:51.454Z,14.73
2022-10-13T06:14:18.357Z,15.57
2022-10-13T06:16:45.192Z,13.60
2022-10-13T06:19:12.075Z,20.53
2022-10-13T06:21:38.938Z,27.83
2022-10-13T06:24:06.181Z,18.77
2022-10-13T06:26:33.196Z,21.50
2022-10-13T06:29:01.543Z,12.33
2022-10-13T06:31:28.484Z,21.50
2022-10-13T06:33:55.460Z,23.03
2022-10-13T06:36:22.298Z,25.83
2022-10-13T06:38:49.073Z,17.83
2022-10-13T06:41:15.973Z,22.07
2022-10-13T06:43:42.999Z,23.17
2022-10-13T06:46:13.185Z,20.40
2022-10-13T06:48:40.085Z,24.80
2022-10-13T06:51:09.463Z,28.53
2022-10-13T06:53:36.876Z,28.27
2022-10-13T06:56:06.531Z,25.23
2022-10-13T06:58:34.529Z,22.43
2022-10-13T07:01:01.454Z,33.13
2022-10-13T07:03:29.974Z,28.63
2022-10-13T07:06:01.029Z,21.53
2022-10-13T07:08:27.930Z,26.93
2022-10-13T07:10:54.793Z,20.87
2022-10-13T07:15:53.274Z,19.10
2022-10-13T07:18:20.035Z,22.90
2022-10-13T07:20:48.115Z,23.27
2022-10-13T07:23:14.901Z,23.37
2022-10-13T07:25:41.680Z,18.23
2022-10-13T07:28:08.526Z,23.10
2022-10-13T07:30:35.326Z,20.20
2022-10-13T07:33:02.151Z,21.10
2022-10-13T07:35:30.925Z,19.37
2022-10-13T07:37:59.282Z,13.07
2022-10-13T07:40:25.991Z,30.60
2022-10-13T07:42:52.712Z,23.37
2022-10-13T07:45:19.460Z,24.93
2022-10-13T07:47:46.218Z,20.83
2022-10-13T07:50:13.138Z,28.27
2022-10-13T07:52:39.974Z,25.67
2022-10-13T07:55:09.228Z,29.43
2022-10-13T07:57:36.023Z,24.07
2022-10-13T08:00:03.896Z,22.73
2022-10-13T08:02:30.605Z,23.30
2022-10-13T08:04:58.458Z,21.53
2022-10-13T08:07:25.198Z,23.43
2022-10-13T08:09:52.247Z,20.87
2022-10-13T08:12:20.680Z,22.30
2022-10-13T08:14:50.503Z,26.97
2022-10-13T08:17:17.426Z,27.87
2022-10-13T08:19:44.486Z,28.90
2022-10-13T08:22:11.475Z,32.50
2022-10-13T08:24:38.238Z,25.53
2022-10-13T08:27:04.959Z,25.73
2022-10-13T08:29:33.168Z,28.33
2022-10-13T08:32:00.145Z,28.70
2022-10-13T08:34:27.003Z,28.30
2022-10-13T08:36:54.800Z,34.43
2022-10-13T08:39:22.995Z,28.27
2022-10-13T08:41:50.362Z,33.30
2022-10-13T08:47:18.480Z,28.83
2022-10-13T08:49:45.448Z,33.00
2022-10-13T08:52:18.745Z,33.90
2022-10-13T08:54:45.922Z,27.63
2022-10-13T08:57:12.720Z,29.40
2022-10-13T08:59:39.774Z,29.20
2022-10-13T09:02:14.180Z,29.53
2022-10-13T09:04:44.176Z,28.33
2022-10-13T09:07:14.798Z,33.50
2022-10-13T09:09:41.610Z,26.43
2022-10-13T09:12:12.108Z,26.50
2022-10-13T09:14:40.314Z,24.90
2022-10-13T09:17:17.097Z,29.40
2022-10-13T09:19:44.859Z,24.13
2022-10-13T09:22:21.682Z,27.73
2022-10-13T09:25:01.501Z,28.03
2022-10-13T09:27:28.383Z,28.70
2022-10-13T09:29:55.131Z,29.50
2022-10-13T09:32:35.387Z,27.97
2022-10-13T09:35:20.319Z,26.93
2022-10-13T09:38:01.268Z,25.10
2022-10-13T09:40:28.372Z,25.20
2022-10-13T09:42:55.273Z,23.00
2022-10-13T09:45:24.707Z,28.17
2022-10-13T09:47:55.688Z,24.90
2022-10-13T09:50:25.734Z,23.37
2022-10-13T09:52:53.282Z,28.70
2022-10-13T09:55:32.421Z,21.60
2022-10-13T09:58:05.517Z,25.40
2022-10-13T10:00:33.339Z,19.37
2022-10-13T10:03:06.133Z,24.27
2022-10-13T10:05:43.041Z,19.07
2022-10-13T10:08:16.008Z,24.67
2022-10-13T10:10:43.624Z,22.60
2022-10-13T10:13:12.240Z,23.67
2022-10-13T10:15:48.443Z,24.40
2022-10-13T10:18:21.619Z,17.77
2022-10-13T10:21:02.523Z,21.20
2022-10-13T10:23:38.752Z,20.83
2022-10-13T10:26:11.679Z,19.47
2022-10-13T10:28:53.559Z,22.10
2022-10-13T10:31:31.829Z,18.67
2022-10-13T10:34:16.838Z,21.37
2022-10-13T10:36:53.226Z,18.13
2022-10-13T10:39:30.327Z,25.60
2022-10-13T10:42:06.100Z,16.67
2022-10-13T10:44:36.643Z,19.67
2022-10-13T10:47:07.573Z,20.27
2022-10-13T10:49:37.060Z,20.43
2022-10-13T10:52:10.162Z,15.37
2022-10-13T10:54:48.410Z,17.77
2022-10-13T10:57:23.155Z,12.77
2022-10-13T10:59:59.657Z,16.97
2022-10-13T11:02:43.296Z,15.40
2022-10-13T11:05:12.302Z,17.53
2022-10-13T11:07:58.007Z,15.30
2022-10-13T11:10:25.247Z,18.17
2022-10-13T11:13:25.089Z,21.23
2022-10-13T11:15:52.327Z,18.00
2022-10-13T11:18:56.961Z,20.50
2022-10-13T11:21:25.372Z,17.03
2022-10-13T11:23:52.251Z,14.83
2022-10-13T11:26:28.791Z,18.53
2022-10-13T11:28:55.693Z,15.47
2022-10-13T11:31:47.647Z,18.00
2022-10-13T11:34:30.706Z,13.47
2022-10-13T11:37:01.273Z,15.33
2022-10-13T11:39:53.853Z,17.20
2022-10-13T11:43:08.245Z,9.47
2022-10-13T11:45:50.413Z,13.83
2022-10-13T11:48:38.292Z,12.33
2022-10-13T11:51:16.441Z,13.67
2022-10-13T11:53:53.470Z,11.67
2022-10-13T11:56:22.306Z,17.60
2022-10-13T11:58:49.472Z,14.00
2022-10-13T12:01:17.506Z,9.90
2022-10-13T12:03:46.052Z,10.40
2022-10-13T12:06:25.633Z,12.30
2022-10-13T12:08:53.906Z,10.70
2022-10-13T12:11:25.895Z,14.77
2022-10-13T12:13:53.566Z,9.80
2022-10-13T12:16:21.827Z,14.53
2022-10-13T12:18:49.187Z,12.93
2022-10-13T12:21:18.544Z,15.43
2022-10-13T12:23:46.151Z,11.30
2022-10-13T12:26:17.737Z,11.30
2022-10-13T12:28:51.869Z,10.40
2022-10-13T12:31:21.233Z,12.70
2022-10-13T12:33:53.404Z,11.23
2022-10-13T12:36:22.603Z,8.33
2022-10-13T12:38:52.591Z,11.13
2022-10-13T12:41:27.135Z,8.23
2022-10-13T12:43:55.215Z,12.80
2022-10-13T12:46:39.011Z,12.00
2022-10-13T12:49:06.420Z,8.80
2022-10-13T12:51:33.716Z,10.70
2022-10-13T12:54:00.801Z,11.83
2022-10-13T12:56:31.327Z,7.27
2022-10-13T12:58:58.948Z,13.17
2022-10-13T13:01:29.446Z,13.83
2022-10-13T13:03:58.941Z,13.70
2022-10-13T13:06:37.251Z,18.93
2022-10-13T13:09:21.697Z,7.77
2022-10-13T13:12:20.448Z,8.47
2022-10-13T13:14:48.774Z,10.10
2022-10-13T13:17:38.830Z,10.77
2022-10-13T13:20:20.367Z,12.60
2022-10-13T13:22:47.290Z,11.20
2022-10-13T13:25:15.344Z,10.40
2022-10-13T13:27:43.735Z,13.70
2022-10-13T13:30:12.939Z,8.77
2022-10-13T13:32:40.288Z,9.50
2022-10-13T13:35:08.007Z,6.30
2022-10-13T13:37:37.955Z,9.90
2022-10-13T13:40:06.041Z,8.43
2022-10-13T13:42:33.598Z,13.70
2022-10-13T13:45:01.771Z,16.27
2022-10-13T13:47:29.233Z,12.07
2022-10-13T13:49:56.969Z,14.80
2022-10-13T13:52:24.608Z,8.67
2022-10-13T13:54:51.939Z,10.40
2022-10-13T13:57:20.439Z,5.70
2022-10-13T13:59:47.592Z,13.00
2022-10-13T14:02:18.234Z,9.20
2022-10-13T14:04:45.717Z,16.03
2022-10-13T14:07:12.786Z,6.63
2022-10-13T14:09:39.792Z,7.10
2022-10-13T14:12:06.803Z,9.23
2022-10-13T14:14:34.097Z,12.53
2022-10-13T14:17:01.891Z,13.63
2022-10-13T14:19:30.467Z,9.30
2022-10-13T14:21:58.151Z,12.40
2022-10-13T14:24:25.426Z,11.50
2022-10-13T14:26:52.652Z,14.63
2022-10-13T14:29:19.768Z,9.90
2022-10-13T14:31:46.710Z,11.93
2022-10-13T14:34:13.782Z,8.80
2022-10-13T14:36:42.380Z,9.47
2022-10-13T14:39:09.389Z,19.93
2022-10-13T14:41:36.379Z,13.90
2022-10-13T14:44:03.402Z,9.43
2022-10-13T14:46:30.649Z,9.93
2022-10-13T14:48:57.810Z,7.37
2022-10-13T14:51:25.065Z,11.13
2022-10-13T14:53:53.287Z,7.67
2022-10-13T14:56:21.892Z,13.20
2022-10-13T14:58:50.028Z,9.83
2022-10-13T15:01:17.906Z,5.40
2022-10-13T15:03:45.550Z,9.43
2022-10-13T15:06:14.310Z,9.80
2022-10-13T15:08:41.685Z,9.10
2022-10-13T15:11:10.372Z,8.63
2022-10-13T15:13:38.013Z,10.17
2022-10-13T15:16:05.811Z,12.40
2022-10-13T15:18:33.966Z,6.90
2022-10-13T15:21:00.764Z,6.90
2022-10-13T15:23:27.999Z,6.23
2022-10-13T15:25:56.641Z,7.63
2022-10-13T15:28:26.106Z,16.00
2022-10-13T15:30:53.055Z,8.53
2022-10-13T15:33:20.012Z,7.63
2022-10-13T15:35:48.303Z,6.17
2022-10-13T15:38:15.060Z,4.67
2022-10-13T15:40:42.033Z,9.50
2022-10-13T15:43:09.035Z,6.40
2022-10-13T15:45:37.759Z,9.77
2022-10-13T15:48:08.640Z,8.37
2022-10-13T15:50:39.505Z,14.10
2022-10-13T15:53:06.803Z,9.13
2022-10-13T15:55:33.628Z,7.97
2022-10-13T15:58:00.790Z,12.13
2022-10-13T16:00:27.640Z,7.20
2022-10-13T16:02:55.964Z,10.27
2022-10-13T16:05:22.949Z,12.03
2022-10-13T16:07:49.744Z,7.90
2022-10-13T16:10:16.790Z,7.77
2022-10-13T16:12:48.561Z,8.70
2022-10-13T16:15:16.955Z,7.53
2022-10-13T16:17:43.819Z,17.33
2022-10-13T16:20:12.849Z,10.70
2022-10-13T16:22:39.605Z,10.70
2022-10-13T16:25:07.547Z,8.90
2022-10-13T16:27:34.907Z,20.50
2022-10-13T16:30:01.726Z,11.63
2022-10-13T16:32:28.503Z,9.73
2022-10-13T16:34:55.296Z,8.37
2022-10-13T16:37:23.900Z,7.33
2022-10-13T16:39:52.070Z,7.60
2022-10-13T16:42:19.189Z,11.97
2022-10-13T16:44:45.887Z,8.10
2022-10-13T16:47:17.350Z,7.20
2022-10-13T16:49:44.936Z,12.57
2022-10-13T16:52:11.770Z,10.07
2022-10-13T16:54:40.108Z,9.37
2022-10-13T16:57:06.990Z,7.17
2022-10-13T16:59:33.971Z,9.20
2022-10-13T17:02:01.228Z,10.93
2022-10-13T17:04:28.390Z,7.50
2022-10-13T17:06:55.355Z,6.87
2022-10-13T17:09:22.868Z,7.43
2022-10-13T17:11:51.104Z,7.77
2022-10-13T17:14:17.865Z,9.83
2022-10-13T17:16:44.652Z,7.70
2022-10-13T17:19:11.519Z,8.40
2022-10-13T17:21:38.319Z,9.23
2022-10-13T17:24:05.365Z,10.87
2022-10-13T17:26:32.197Z,15.03
2022-10-13T17:29:00.683Z,12.40
2022-10-13T17:31:27.611Z,9.10
2022-10-13T17:33:54.448Z,8.33
2022-10-13T17:36:23.455Z,9.60
2022-10-13T17:38:51.543Z,8.13
2022-10-13T17:41:19.205Z,15.40
2022-10-13T17:43:46.200Z,16.73
2022-10-13T17:46:36.925Z,15.07
2022-10-13T17:49:03.616Z,10.77
2022-10-13T17:51:30.486Z,11.67
2022-10-13T17:53:59.483Z,10.50
2022-10-13T17:56:26.546Z,12.70
2022-10-13T17:58:53.449Z,11.53
2022-10-13T18:01:23.669Z,12.77
2022-10-13T18:03:51.891Z,8.10
2022-10-13T18:06:18.954Z,12.67
2022-10-13T18:08:46.289Z,7.00
2022-10-13T18:11:15.752Z,8.47
2022-10-13T18:13:44.124Z,7.27
2022-10-13T18:16:12.702Z,10.53
2022-10-13T18:18:41.471Z,11.13
2022-10-13T18:21:08.392Z,17.10
2022-10-13T18:23:37.258Z,9.73
2022-10-13T18:26:05.757Z,7.47
2022-10-13T18:28:34.005Z,8.43
2022-10-13T18:31:05.894Z,8.50
2022-10-13T18:33:33.039Z,7.30
2022-10-13T18:36:02.012Z,12.37
2022-10-13T18:38:28.899Z,10.27
2022-10-13T18:40:59.537Z,6.50
2022-10-13T18:43:26.296Z,8.50
2022-10-13T18:45:53.089Z,10.17
2022-10-13T18:48:19.985Z,7.90
2022-10-13T18:50:46.726Z,11.03
2022-10-13T18:53:15.098Z,11.57
2022-10-13T18:55:41.901Z,8.00
2022-10-13T18:58:08.720Z,9.67
2022-10-13T19:00:35.622Z,6.97
2022-10-13T19:03:02.602Z,8.70
2022-10-13T19:05:29.635Z,7.97
2022-10-13T19:07:56.483Z,15.03
2022-10-13T19:10:24.636Z,11.77
2022-10-13T19:12:51.395Z,8.87
2022-10-13T19:15:18.224Z,8.33
2022-10-13T19:17:45.015Z,7.50
2022-10-13T19:20:12.053Z,9.37
2022-10-13T19:22:38.840Z,9.23
2022-10-13T19:25:06.852Z,15.60
2022-10-13T19:27:35.044Z,9.90
2022-10-13T19:30:01.881Z,13.40
2022-10-13T19:32:28.703Z,8.10
2022-10-13T19:34:55.492Z,9.40
2022-10-13T19:37:22.853Z,10.67
2022-10-13T19:39:49.974Z,10.43
2022-10-13T19:42:16.981Z,13.97
2022-10-13T19:44:45.233Z,8.27
2022-10-13T19:47:12.098Z,10.60
2022-10-13T19:49:38.913Z,9.87
2022-10-13T19:52:05.636Z,11.43
2022-10-13T19:54:34.044Z,9.87
2022-10-13T19:57:01.031Z,10.87
2022-10-13T19:59:27.860Z,11.47
2022-10-13T20:01:56.128Z,12.80
2022-10-13T20:04:22.920Z,12.27
2022-10-13T20:06:50.597Z,14.07
2022-10-13T20:09:18.337Z,7.57
2022-10-13T20:11:51.855Z,7.23
2022-10-13T20:14:18.907Z,8.07
2022-10-13T20:16:48.828Z,14.67
2022-10-13T20:19:17.903Z,9.83
2022-10-13T20:21:44.752Z,8.87
2022-10-13T20:24:11.661Z,11.57
2022-10-13T20:26:38.387Z,14.13
2022-10-13T20:29:05.379Z,8.00
2022-10-13T20:31:32.197Z,5.40
2022-10-13T20:33:59.215Z,6.00
2022-10-13T20:36:28.207Z,6.97
2022-10-13T20:38:55.224Z,6.97
2022-10-13T20:41:24.284Z,5.70
2022-10-13T20:43:51.965Z,9.40
2022-10-13T20:46:19.660Z,6.63
2022-10-13T20:51:35.533Z,12.83
2022-10-13T20:54:02.545Z,11.30
2022-10-13T20:56:29.380Z,9.23
2022-10-13T20:58:56.258Z,8.10
2022-10-13T21:01:23.137Z,7.90
2022-10-13T21:03:51.841Z,9.63
2022-10-13T21:06:18.693Z,5.83
2022-10-13T21:08:47.034Z,6.57
2022-10-13T21:11:16.172Z,8.10
2022-10-13T21:13:44.133Z,8.47
2022-10-13T21:16:12.463Z,10.53
2022-10-13T21:18:39.644Z,9.77
2022-10-13T21:21:08.649Z,6.37
2022-10-13T21:23:36.827Z,7.37
2022-10-13T21:26:07.283Z,12.37
2022-10-13T21:28:36.192Z,11.63
2022-10-13T21:31:04.894Z,7.13
2022-10-13T21:33:34.418Z,8.47
2022-10-13T21:36:05.690Z,8.07
2022-10-13T21:38:32.453Z,8.13
2022-10-13T21:40:59.241Z,9.70
2022-10-13T21:43:27.500Z,6.33
2022-10-13T21:45:54.306Z,6.77
2022-10-13T21:48:21.075Z,7.20
2022-10-13T21:50:47.999Z,10.10
2022-10-13T21:53:14.777Z,8.30
2022-10-13T21:55:42.206Z,9.17
2022-10-13T21:58:08.990Z,9.10
2022-10-13T22:00:37.273Z,6.40
2022-10-13T22:03:04.207Z,7.53
2022-10-13T22:05:30.985Z,7.13
2022-10-13T22:07:57.835Z,7.87
2022-10-13T22:10:24.674Z,9.50
2022-10-13T22:12:51.478Z,10.00
2022-10-13T22:15:18.235Z,10.57
2022-10-13T22:17:46.389Z,8.00
2022-10-13T22:20:13.238Z,8.10
2022-10-13T22:22:40.107Z,8.23
2022-10-13T22:25:08.205Z,7.93
2022-10-13T22:27:34.963Z,7.70
2022-10-13T22:30:01.837Z,10.33
2022-10-13T22:32:28.883Z,8.63
2022-10-13T22:34:57.114Z,6.90
2022-10-13T22:37:24.034Z,13.03
2022-10-13T22:39:51.071Z,9.43
2022-10-13T22:42:17.983Z,8.80
2022-10-13T22:44:44.848Z,13.27
2022-10-13T22:47:11.631Z,10.07
2022-10-13T22:49:38.423Z,7.53
2022-10-13T22:52:06.694Z,6.77
2022-10-13T22:54:33.499Z,12.40
2022-10-13T22:57:00.259Z,8.73
2022-10-13T22:59:27.105Z,12.53
2022-10-13T23:01:53.963Z,15.50
2022-10-13T23:04:20.698Z,10.00
2022-10-13T23:06:47.549Z,14.70
2022-10-13T23:09:15.780Z,9.27
2022-10-13T23:11:42.640Z,7.60
2022-10-13T23:14:09.703Z,13.53
2022-10-13T23:16:36.467Z,11.57
2022-10-13T23:19:03.451Z,6.10
2022-10-13T23:21:30.896Z,8.53
2022-10-13T23:23:59.126Z,10.23
2022-10-13T23:26:28.725Z,8.33
2022-10-13T23:28:55.882Z,6.80
2022-10-13T23:31:22.950Z,7.53
2022-10-13T23:33:50.010Z,8.47
2022-10-13T23:36:18.773Z,9.37
2022-10-13T23:38:45.856Z,9.90
2022-10-13T23:41:14.393Z,14.40
2022-10-13T23:43:43.077Z,10.17
2022-10-13T23:46:10.273Z,12.20
2022-10-13T23:48:37.581Z,8.37
2022-10-13T23:51:08.961Z,8.20
2022-10-13T23:53:36.678Z,13.23
2022-10-13T23:56:04.167Z,12.33
2022-10-13T23:58:30.984Z,11.53
